Time;durP1;ratioP1;P1;durP2;ratioP2;P2;SDS_P1;SDS_P2;PMS_P1;PMS_P2;Temp;Humidity;BMP_temperature;BMP_pressure;BME280_temperature;BME280_humidity;BME280_pressure;Samples;Min_cycle;Max_cycle;Signal;HPM_P1;HPM_P2
2024/02/08 00:02:07;;;;;;;5.60;2.00;;;0.60;99.90;;;;;;5092673;28;20043;-63
2024/02/08 00:04:35;;;;;;;6.85;1.65;;;0.70;99.90;;;;;;5098016;28;20046;-62
2024/02/08 00:07:00;;;;;;;5.47;1.30;;;0.60;99.90;;;;;;5062646;28;20056;-62
2024/02/08 00:09:26;;;;;;;6.53;2.58;;;0.70;99.90;;;;;;5077952;28;20169;-63
2024/02/08 00:11:52;;;;;;;6.85;1.95;;;0.60;99.90;;;;;;5097694;28;20036;-62
2024/02/08 00:14:18;;;;;;;6.18;1.98;;;0.60;99.90;;;;;;5096349;28;20039;-63
2024/02/08 00:16:43;;;;;;;4.85;1.70;;;0.60;99.90;;;;;;5096864;28;20043;-63
2024/02/08 00:19:09;;;;;;;6.63;2.03;;;0.60;99.90;;;;;;5078625;28;20602;-62
2024/02/08 00:21:37;;;;;;;3.55;1.88;;;0.60;99.90;;;;;;5077773;28;20031;-62
2024/02/08 00:24:03;;;;;;;9.57;2.08;;;0.60;99.90;;;;;;5098331;28;20039;-62
2024/02/08 00:26:29;;;;;;;8.88;2.00;;;0.70;99.90;;;;;;5093740;28;20044;-62
2024/02/08 00:28:54;;;;;;;5.90;1.80;;;0.70;99.90;;;;;;5094975;28;20890;-63
2024/02/08 00:31:20;;;;;;;10.88;2.90;;;0.70;99.90;;;;;;5080647;28;20043;-62
2024/02/08 00:33:48;;;;;;;5.15;1.40;;;0.70;99.90;;;;;;5096906;28;20036;-62
2024/02/08 00:36:15;;;;;;;8.25;1.83;;;0.70;99.90;;;;;;5096521;28;20036;-62
2024/02/08 00:38:42;;;;;;;4.55;1.23;;;0.70;99.90;;;;;;5079446;28;20054;-62
2024/02/08 00:41:08;;;;;;;5.10;1.90;;;0.70;99.90;;;;;;5075271;28;20038;-62
2024/02/08 00:43:34;;;;;;;8.77;1.77;;;0.80;99.90;;;;;;5093369;28;20476;-62
2024/02/08 00:46:02;;;;;;;8.65;2.30;;;0.80;99.90;;;;;;5076344;28;20044;-62
2024/02/08 00:48:29;;;;;;;3.40;1.83;;;0.90;99.90;;;;;;5096511;28;20040;-62
2024/02/08 00:50:55;;;;;;;5.63;1.77;;;0.90;99.90;;;;;;5094246;28;20393;-62
2024/02/08 00:53:21;;;;;;;5.97;1.88;;;0.80;99.90;;;;;;5107834;27;20133;-62
2024/02/08 00:55:47;;;;;;;4.43;1.65;;;0.80;99.90;;;;;;5077548;28;20059;-62
2024/02/08 00:58:16;;;;;;;4.22;1.40;;;0.80;99.90;;;;;;5095427;28;20044;-62
2024/02/08 01:00:44;;;;;;;5.72;1.73;;;0.80;99.90;;;;;;5094027;28;20051;-62
2024/02/08 01:03:10;;;;;;;5.32;1.40;;;0.80;99.90;;;;;;5078323;28;20036;-62
2024/02/08 01:05:36;;;;;;;6.00;1.58;;;0.70;99.90;;;;;;5076802;28;20056;-62
2024/02/08 01:08:02;;;;;;;5.95;1.80;;;0.80;99.90;;;;;;5076447;28;20378;-62
2024/02/08 01:10:28;;;;;;;6.30;1.65;;;0.70;99.90;;;;;;5078216;28;20640;-63
2024/02/08 01:12:54;;;;;;;7.22;1.58;;;0.80;99.90;;;;;;5093989;28;20111;-62
2024/02/08 01:15:21;;;;;;;6.72;1.67;;;0.70;99.90;;;;;;5077232;28;20063;-63
2024/02/08 01:17:51;;;;;;;10.63;2.10;;;0.80;99.90;;;;;;5095213;28;20036;-62
2024/02/08 01:20:21;;;;;;;5.95;2.45;;;0.70;99.90;;;;;;5095088;28;20538;-62
2024/02/08 01:22:48;;;;;;;6.50;2.00;;;0.80;99.90;;;;;;5074158;28;20046;-62
2024/02/08 01:25:14;;;;;;;5.90;2.20;;;0.80;99.90;;;;;;5095120;28;20043;-62
2024/02/08 01:27:40;;;;;;;6.22;1.63;;;0.80;99.90;;;;;;5094481;28;20031;-62
2024/02/08 01:30:07;;;;;;;8.57;2.03;;;0.90;99.90;;;;;;5075492;28;20089;-63
2024/02/08 01:32:34;;;;;;;8.75;1.95;;;0.80;99.90;;;;;;5093217;28;20052;-62
2024/02/08 01:34:59;;;;;;;6.18;2.67;;;0.90;99.90;;;;;;5097908;28;20097;-62
2024/02/08 01:37:25;;;;;;;6.88;1.50;;;0.80;99.90;;;;;;5098118;28;20039;-63
2024/02/08 01:39:51;;;;;;;7.05;1.90;;;0.80;99.90;;;;;;5092620;28;20040;-62
2024/02/08 01:42:17;;;;;;;5.50;2.53;;;0.80;99.90;;;;;;5094485;28;20035;-62
2024/02/08 01:44:58;;;;;;;5.70;1.17;;;0.80;99.90;;;;;;5093957;28;20114;-62
2024/02/08 01:47:25;;;;;;;4.03;1.58;;;0.70;99.90;;;;;;5075503;28;20048;-62
2024/02/08 01:49:51;;;;;;;6.85;2.28;;;0.60;99.90;;;;;;5076855;28;20494;-62
2024/02/08 01:52:18;;;;;;;4.82;1.67;;;0.60;99.90;;;;;;5093699;28;20036;-62
2024/02/08 01:54:48;;;;;;;10.10;1.83;;;0.60;99.90;;;;;;5094600;28;20048;-63
2024/02/08 01:57:14;;;;;;;12.95;1.98;;;0.60;99.90;;;;;;5102816;27;20032;-62
2024/02/08 01:59:44;;;;;;;4.40;1.98;;;0.60;99.90;;;;;;5079226;28;20035;-63
2024/02/08 02:02:11;;;;;;;8.77;1.67;;;0.60;99.90;;;;;;5078228;28;20044;-62
2024/02/08 02:04:39;;;;;;;3.20;1.35;;;0.60;99.90;;;;;;5095799;28;20055;-62
2024/02/08 02:07:05;;;;;;;5.90;1.90;;;0.50;99.90;;;;;;5075717;28;20051;-62
2024/02/08 02:09:31;;;;;;;5.97;2.58;;;0.60;99.90;;;;;;5091040;28;20038;-62
2024/02/08 02:12:05;;;;;;;8.68;2.63;;;0.50;99.90;;;;;;5091332;28;20398;-62
2024/02/08 02:14:32;;;;;;;11.38;3.25;;;0.50;99.90;;;;;;5057701;28;20098;-62
2024/02/08 02:17:26;;;;;;;8.77;3.45;;;0.60;99.90;;;;;;5091587;28;20044;-62
2024/02/08 02:19:52;;;;;;;9.90;3.00;;;0.60;99.90;;;;;;5075446;28;20036;-63
2024/02/08 02:22:20;;;;;;;7.15;3.00;;;0.60;99.90;;;;;;5077539;28;20363;-62
2024/02/08 02:24:48;;;;;;;8.75;2.88;;;0.60;99.90;;;;;;5096284;28;20059;-62
2024/02/08 02:27:16;;;;;;;6.03;2.50;;;0.60;99.90;;;;;;5073712;28;20071;-63
2024/02/08 02:29:44;;;;;;;14.68;3.63;;;0.60;99.90;;;;;;5077705;28;20046;-63
2024/02/08 02:32:20;;;;;;;9.60;3.70;;;0.60;99.90;;;;;;5073935;28;20501;-63
2024/02/08 02:34:50;;;;;;;7.70;3.67;;;0.60;99.90;;;;;;5093891;28;20048;-63
2024/02/08 02:37:18;;;;;;;12.23;3.95;;;0.60;99.90;;;;;;5091658;28;20100;-63
2024/02/08 02:39:44;;;;;;;11.93;3.20;;;0.60;99.90;;;;;;5075713;28;20036;-62
2024/02/08 02:42:10;;;;;;;10.02;3.50;;;0.70;99.90;;;;;;5090243;28;20031;-62
2024/02/08 02:44:36;;;;;;;8.75;2.97;;;0.60;99.90;;;;;;5051666;28;20108;-63
2024/02/08 02:47:03;;;;;;;10.75;2.90;;;0.50;99.90;;;;;;5091157;28;20583;-62
2024/02/08 02:49:29;;;;;;;8.50;3.05;;;0.50;99.90;;;;;;5072086;28;20032;-62
2024/02/08 02:51:59;;;;;;;8.70;3.40;;;0.40;99.90;;;;;;5093965;28;20100;-62
2024/02/08 02:54:30;;;;;;;14.60;4.30;;;0.40;99.90;;;;;;5089211;28;20051;-62
2024/02/08 02:56:56;;;;;;;12.23;3.10;;;0.40;99.90;;;;;;5090334;28;20032;-62
2024/02/08 02:59:26;;;;;;;4.70;2.13;;;0.40;99.90;;;;;;5086959;28;20027;-62
2024/02/08 03:01:55;;;;;;;9.63;3.13;;;0.40;99.90;;;;;;5090484;28;20046;-63
2024/02/08 03:04:21;;;;;;;11.90;3.40;;;0.40;99.90;;;;;;5093485;28;20035;-62
2024/02/08 03:06:52;;;;;;;11.02;4.15;;;0.30;99.90;;;;;;5079899;28;20051;-63
2024/02/08 03:09:23;;;;;;;11.70;3.85;;;0.40;99.90;;;;;;5088342;28;20035;-62
2024/02/08 03:11:49;;;;;;;7.20;3.13;;;0.40;99.90;;;;;;5073542;28;20055;-63
2024/02/08 03:14:18;;;;;;;11.07;4.05;;;0.40;99.90;;;;;;5071183;28;20035;-62
2024/02/08 03:16:45;;;;;;;12.27;4.05;;;0.40;99.90;;;;;;5091011;28;20040;-63
2024/02/08 03:19:11;;;;;;;12.10;3.60;;;0.40;99.90;;;;;;5076320;28;20490;-63
2024/02/08 03:21:40;;;;;;;7.70;3.45;;;0.40;99.90;;;;;;5091021;28;20028;-62
2024/02/08 03:24:09;;;;;;;8.43;3.83;;;0.50;99.90;;;;;;5093537;28;20059;-63
2024/02/08 03:26:44;;;;;;;7.03;2.80;;;0.40;99.90;;;;;;5104802;28;20050;-63
2024/02/08 03:29:11;;;;;;;9.52;2.85;;;0.40;99.90;;;;;;5088785;28;20044;-63
2024/02/08 03:31:45;;;;;;;8.93;3.35;;;0.50;99.90;;;;;;5092644;28;20043;-63
2024/02/08 03:34:23;;;;;;;8.07;2.92;;;0.50;99.90;;;;;;5092501;28;20095;-63
2024/02/08 03:36:49;;;;;;;8.43;3.38;;;0.50;99.90;;;;;;5092525;28;20030;-63
2024/02/08 03:39:24;;;;;;;8.73;3.88;;;0.50;99.90;;;;;;5080394;28;20035;-62
2024/02/08 03:41:57;;;;;;;8.50;3.65;;;0.60;99.90;;;;;;5079306;28;20043;-63
2024/02/08 03:44:23;;;;;;;8.68;3.35;;;0.60;99.90;;;;;;5082686;28;20047;-63
2024/02/08 03:46:50;;;;;;;11.15;4.25;;;0.60;99.90;;;;;;5077849;28;20078;-62
2024/02/08 03:49:16;;;;;;;10.93;4.18;;;0.70;99.90;;;;;;5095374;28;20047;-62
2024/02/08 03:51:42;;;;;;;12.35;4.03;;;0.60;99.90;;;;;;5095539;28;20040;-63
2024/02/08 03:54:08;;;;;;;11.20;4.25;;;0.70;99.90;;;;;;5076875;28;20071;-63
2024/02/08 03:56:37;;;;;;;7.43;4.20;;;0.70;99.90;;;;;;5098352;28;20482;-63
2024/02/08 03:59:07;;;;;;;11.32;4.10;;;0.70;99.90;;;;;;5093247;28;20385;-63
2024/02/08 04:01:33;;;;;;;11.60;4.28;;;0.70;99.90;;;;;;5096510;28;20040;-62
2024/02/08 04:04:12;;;;;;;10.00;4.15;;;0.70;99.90;;;;;;5094503;28;20139;-63
2024/02/08 04:07:01;;;;;;;9.13;4.25;;;0.70;99.90;;;;;;5097415;28;20040;-63
2024/02/08 04:09:36;;;;;;;14.57;4.28;;;0.70;99.90;;;;;;5093406;28;20076;-63
2024/02/08 04:55:57;;;;;;;10.07;4.40;;;0.80;99.90;;;;;;5094777;28;20040;-63
2024/02/08 04:58:23;;;;;;;10.43;5.00;;;0.80;99.90;;;;;;5079734;28;20127;-63
2024/02/08 05:00:49;;;;;;;9.85;3.88;;;0.70;99.90;;;;;;5091948;28;20089;-63
2024/02/08 05:03:17;;;;;;;9.10;4.40;;;0.70;99.90;;;;;;5092568;28;20047;-63
2024/02/08 05:05:46;;;;;;;14.85;4.75;;;0.80;99.90;;;;;;5094658;28;20058;-63
2024/02/08 05:08:12;;;;;;;13.75;4.50;;;0.80;99.90;;;;;;5095482;28;20079;-63
2024/02/08 05:10:37;;;;;;;12.15;5.30;;;0.80;99.90;;;;;;5097015;28;20071;-63
2024/02/08 05:13:04;;;;;;;17.25;5.45;;;0.80;99.90;;;;;;5094647;28;20024;-63
2024/02/08 05:15:33;;;;;;;13.57;5.97;;;0.80;99.90;;;;;;5095356;28;20051;-63
2024/02/08 05:17:59;;;;;;;11.35;4.63;;;0.80;99.90;;;;;;5093984;28;20071;-63
2024/02/08 05:20:25;;;;;;;11.55;5.45;;;0.90;99.90;;;;;;5094453;28;20056;-63
2024/02/08 05:22:51;;;;;;;13.65;5.38;;;0.90;99.90;;;;;;5090235;28;20058;-63
2024/02/08 05:25:21;;;;;;;10.77;5.60;;;0.80;99.90;;;;;;5096230;28;20032;-63
2024/02/08 05:27:47;;;;;;;14.63;5.88;;;0.90;99.90;;;;;;5077766;28;20611;-63
2024/02/08 05:30:15;;;;;;;12.88;5.30;;;0.90;99.90;;;;;;5070843;28;20044;-63
2024/02/08 05:32:43;;;;;;;13.90;5.47;;;0.90;99.90;;;;;;5074928;28;20048;-63
2024/02/08 05:35:13;;;;;;;14.90;6.40;;;0.80;99.90;;;;;;5088148;28;20038;-63
2024/02/08 05:37:39;;;;;;;17.77;6.57;;;0.90;99.90;;;;;;5070304;28;20478;-63
2024/02/08 05:40:06;;;;;;;12.07;5.63;;;0.90;99.90;;;;;;5088983;28;20055;-63
2024/02/08 05:42:36;;;;;;;11.80;4.78;;;1.00;99.90;;;;;;5089875;28;20047;-63
2024/02/08 05:45:21;;;;;;;12.88;5.25;;;1.00;99.90;;;;;;5095830;28;20043;-63
2024/02/08 05:47:48;;;;;;;11.32;4.68;;;1.00;99.90;;;;;;5094001;28;20043;-63
2024/02/08 05:50:24;;;;;;;8.27;4.93;;;1.00;99.90;;;;;;5091001;28;20394;-63
2024/02/08 05:52:56;;;;;;;10.23;4.68;;;1.00;99.90;;;;;;5091615;28;20068;-63
2024/02/08 05:55:24;;;;;;;11.02;5.22;;;1.00;99.90;;;;;;5108100;27;20040;-63
2024/02/08 05:57:58;;;;;;;12.10;4.80;;;1.10;99.90;;;;;;5089331;28;20040;-63
2024/02/08 06:00:36;;;;;;;14.32;4.97;;;1.10;99.90;;;;;;5092154;28;20054;-63
2024/02/08 06:03:03;;;;;;;11.32;4.90;;;1.10;99.90;;;;;;5073407;28;20040;-63
2024/02/08 06:05:32;;;;;;;14.23;4.40;;;1.00;99.90;;;;;;5095838;28;20351;-63
2024/02/08 06:08:02;;;;;;;11.20;4.65;;;1.10;99.90;;;;;;5074965;28;20052;-63
2024/02/08 06:10:45;;;;;;;13.07;5.60;;;1.10;99.90;;;;;;5078632;28;20393;-63
2024/02/08 06:13:13;;;;;;;11.80;4.72;;;1.10;99.90;;;;;;5099076;28;20023;-63
2024/02/08 06:15:43;;;;;;;12.02;4.63;;;1.10;99.90;;;;;;5091033;28;20486;-63
2024/02/08 06:18:19;;;;;;;13.68;4.38;;;1.20;99.90;;;;;;5077177;28;20504;-63
2024/02/08 06:20:59;;;;;;;11.85;4.70;;;1.20;99.90;;;;;;5093344;28;20043;-63
2024/02/08 06:23:27;;;;;;;11.20;4.25;;;1.30;99.90;;;;;;5090081;28;20036;-63
2024/02/08 06:28:41;;;;;;;7.50;3.97;;;1.30;99.90;;;;;;5091436;28;20043;-63
2024/02/08 06:31:07;;;;;;;14.32;4.55;;;1.30;99.90;;;;;;5096967;28;20084;-63
2024/02/08 06:33:42;;;;;;;11.50;5.15;;;1.30;99.90;;;;;;5094873;28;20050;-63
2024/02/08 06:36:13;;;;;;;11.23;4.70;;;1.30;99.90;;;;;;5097518;28;20103;-63
2024/02/08 06:38:51;;;;;;;7.40;4.20;;;1.30;99.90;;;;;;5090142;28;20114;-63
2024/02/08 06:41:24;;;;;;;10.32;3.95;;;1.30;99.90;;;;;;5092458;28;20080;-63
2024/02/08 06:44:42;;;;;;;9.57;4.45;;;1.30;99.90;;;;;;5090829;28;20554;-63
2024/02/08 06:46:56;;;;;;;9.88;4.55;;;1.20;99.90;;;;;;5077145;28;20048;-63
2024/02/08 07:38:53;;;;;;;8.80;3.63;;;1.40;99.90;;;;;;5050725;28;20039;-63
2024/02/08 07:41:21;;;;;;;9.07;3.95;;;1.50;99.90;;;;;;5059299;28;20076;-63
2024/02/08 07:43:55;;;;;;;8.07;3.88;;;1.50;99.90;;;;;;5091712;28;20063;-63
2024/02/08 07:46:29;;;;;;;11.63;4.25;;;1.50;99.90;;;;;;5095711;28;20718;-63
2024/02/08 07:48:58;;;;;;;9.88;3.40;;;1.50;99.90;;;;;;5094528;28;20119;-63
2024/02/08 07:51:28;;;;;;;9.55;2.85;;;1.50;99.90;;;;;;5076528;28;20513;-63
2024/02/08 07:53:58;;;;;;;9.02;4.10;;;1.60;99.90;;;;;;5092629;28;20036;-63
2024/02/08 07:58:52;;;;;;;8.13;4.28;;;1.50;99.90;;;;;;5093304;28;20151;-63
2024/02/08 08:01:18;;;;;;;12.27;4.70;;;1.60;99.90;;;;;;5097763;28;20028;-63
2024/02/08 08:03:45;;;;;;;9.55;4.15;;;1.60;99.90;;;;;;5105583;28;20059;-63
2024/02/08 08:06:15;;;;;;;10.63;4.10;;;1.60;99.90;;;;;;5104319;28;20051;-63
2024/02/08 08:08:57;;;;;;;10.15;5.15;;;1.60;99.90;;;;;;5092349;28;20050;-63
2024/02/08 08:11:25;;;;;;;10.73;4.80;;;1.70;99.90;;;;;;5091162;28;20062;-63
2024/02/08 08:19:07;;;;;;;10.00;3.63;;;1.70;99.90;;;;;;5095287;28;20119;-63
2024/02/08 08:22:03;;;;;;;13.43;3.90;;;1.70;99.90;;;;;;5079025;28;20044;-63
2024/02/08 08:24:28;;;;;;;14.80;4.05;;;1.70;99.90;;;;;;5091229;28;20040;-63
2024/02/08 08:27:47;;;;;;;11.48;3.92;;;1.80;99.90;;;;;;5078792;28;20153;-63
2024/02/08 08:29:47;;;;;;;10.32;3.85;;;1.80;99.90;;;;;;5071005;28;20035;-63
2024/02/08 08:33:07;;;;;;;12.60;3.97;;;1.80;99.90;;;;;;5079121;28;20043;-63
2024/02/08 08:40:48;;;;;;;15.25;4.10;;;2.10;99.90;;;;;;5017685;28;20064;-63
2024/02/08 08:43:20;;;;;;;17.50;4.43;;;2.10;99.90;;;;;;5077176;27;20382;-63
2024/02/08 08:45:53;;;;;;;10.95;4.30;;;2.10;99.90;;;;;;5052002;28;20050;-63
2024/02/08 08:48:29;;;;;;;17.05;3.83;;;2.20;99.90;;;;;;5096721;28;20040;-63
2024/02/08 08:51:01;;;;;;;14.60;3.63;;;2.30;99.90;;;;;;5096485;28;20483;-63
2024/02/08 08:53:28;;;;;;;11.35;4.30;;;2.40;99.90;;;;;;5096443;28;20072;-63
2024/02/08 08:55:55;;;;;;;13.48;4.55;;;2.50;99.90;;;;;;5079186;28;20086;-63
2024/02/08 08:58:28;;;;;;;16.75;3.88;;;2.50;99.90;;;;;;5096072;28;20516;-63
2024/02/08 09:03:39;;;;;;;13.77;3.00;;;2.80;99.90;;;;;;5075510;28;20514;-63
2024/02/08 09:06:12;;;;;;;15.48;2.90;;;2.90;99.90;;;;;;5080788;28;20070;-63
2024/02/08 09:08:43;;;;;;;12.60;2.80;;;2.90;99.90;;;;;;5095864;28;20402;-63
2024/02/08 09:11:15;;;;;;;9.15;2.53;;;3.00;99.90;;;;;;5082527;28;20105;-64
2024/02/08 09:13:44;;;;;;;10.02;2.85;;;3.10;99.90;;;;;;5099402;28;20044;-63
2024/02/08 09:19:03;;;;;;;13.88;2.60;;;3.00;99.90;;;;;;5092820;28;20048;-63
2024/02/08 09:21:35;;;;;;;13.00;3.05;;;3.10;99.90;;;;;;5091135;28;20071;-63
2024/02/08 09:24:05;;;;;;;12.55;2.67;;;3.10;99.90;;;;;;5098887;28;20035;-63
2024/02/08 09:26:48;;;;;;;18.20;3.35;;;3.10;99.90;;;;;;5090655;28;20068;-63
2024/02/08 09:29:15;;;;;;;21.25;3.28;;;3.10;99.90;;;;;;5113555;27;20081;-63
2024/02/08 09:31:46;;;;;;;11.60;3.15;;;3.10;99.90;;;;;;5059324;28;20044;-64
2024/02/08 09:34:16;;;;;;;12.15;2.53;;;3.10;99.90;;;;;;5078952;28;20089;-63
2024/02/08 09:36:48;;;;;;;8.52;2.15;;;3.20;99.90;;;;;;5074850;28;20040;-63
2024/02/08 09:39:17;;;;;;;14.27;2.67;;;3.20;99.90;;;;;;5089184;28;20063;-63
2024/02/08 09:41:47;;;;;;;9.13;3.33;;;3.20;99.90;;;;;;5094860;28;20448;-63
2024/02/08 09:44:14;;;;;;;11.20;2.17;;;3.20;99.90;;;;;;5087485;28;20542;-63
2024/02/08 09:49:21;;;;;;;10.50;2.53;;;3.30;99.90;;;;;;5093063;28;20044;-63
2024/02/08 09:51:56;;;;;;;11.10;2.40;;;3.40;99.90;;;;;;5098660;28;20032;-63
2024/02/08 09:54:31;;;;;;;12.77;2.92;;;3.50;99.90;;;;;;5099130;28;20054;-63
2024/02/08 09:57:20;;;;;;;11.35;2.45;;;3.50;99.90;;;;;;5093984;28;20036;-63
2024/02/08 10:00:02;;;;;;;11.20;2.55;;;3.50;99.90;;;;;;5094058;28;20124;-63
2024/02/08 10:02:36;;;;;;;18.88;3.70;;;3.60;99.90;;;;;;5090250;28;20946;-63
2024/02/08 10:05:19;;;;;;;10.75;2.60;;;3.70;99.90;;;;;;5092086;28;20039;-63
2024/02/08 10:08:09;;;;;;;11.18;3.30;;;3.70;99.90;;;;;;5095079;28;20058;-63
2024/02/08 10:10:56;;;;;;;9.57;3.35;;;3.80;99.90;;;;;;5081740;28;20043;-63
2024/02/08 10:13:40;;;;;;;14.75;3.72;;;3.80;99.90;;;;;;5092883;28;20052;-63
2024/02/08 10:16:12;;;;;;;20.27;3.10;;;3.80;99.90;;;;;;5106792;27;22542;-63
2024/02/08 10:18:38;;;;;;;14.23;2.58;;;3.80;99.90;;;;;;5069049;28;20040;-63
2024/02/08 10:21:12;;;;;;;8.05;2.25;;;3.90;99.90;;;;;;5080659;28;20554;-63
2024/02/08 10:24:11;;;;;;;11.02;2.58;;;3.90;99.90;;;;;;5073013;28;20559;-63
2024/02/08 10:26:45;;;;;;;15.73;2.28;;;3.90;99.90;;;;;;5096962;28;20553;-63
2024/02/08 10:29:14;;;;;;;8.10;1.88;;;4.00;99.90;;;;;;5076325;28;20028;-63
2024/02/08 10:31:40;;;;;;;9.30;2.50;;;4.00;99.90;;;;;;5070380;28;20043;-63
2024/02/08 10:34:08;;;;;;;10.48;2.80;;;4.10;99.90;;;;;;5079288;28;20506;-63
2024/02/08 10:36:44;;;;;;;12.95;2.40;;;4.10;99.90;;;;;;5096665;28;20043;-63
2024/02/08 10:39:28;;;;;;;;;;;4.10;99.90;;;;;;5075407;28;20077;-63
2024/02/08 10:44:24;;;;;;;14.48;2.30;;;4.10;99.90;;;;;;5091807;28;20414;-63
2024/02/08 10:46:55;;;;;;;15.23;2.78;;;4.20;99.90;;;;;;5087900;28;20100;-63
2024/02/08 10:49:24;;;;;;;9.88;2.67;;;4.10;99.90;;;;;;5095233;28;20040;-63
2024/02/08 10:51:59;;;;;;;12.68;2.50;;;4.10;99.90;;;;;;5085364;28;20063;-63
2024/02/08 10:54:39;;;;;;;7.88;2.20;;;4.20;99.90;;;;;;5094650;28;20054;-63
2024/02/08 10:57:33;;;;;;;13.45;2.22;;;4.10;99.90;;;;;;5097416;28;20038;-63
2024/02/08 10:59:55;;;;;;;12.43;2.00;;;4.20;99.90;;;;;;5095795;28;20035;-63
2024/02/08 11:02:48;;;;;;;9.70;2.85;;;4.10;99.90;;;;;;5094618;28;20051;-63
2024/02/08 11:05:34;;;;;;;14.98;2.20;;;4.20;99.90;;;;;;5094086;28;20043;-63
2024/02/08 11:08:00;;;;;;;;;;;4.20;99.90;;;;;;5076952;28;20063;-63
2024/02/08 11:10:32;;;;;;;11.80;1.55;;;4.20;99.90;;;;;;5088929;28;20317;-64
2024/02/08 11:13:10;;;;;;;12.35;1.90;;;4.20;99.90;;;;;;5092732;28;20092;-63
2024/02/08 11:15:41;;;;;;;10.13;2.22;;;4.20;99.90;;;;;;5075864;28;20048;-63
2024/02/08 11:18:32;;;;;;;9.45;2.28;;;4.20;99.90;;;;;;5058487;28;20102;-63
2024/02/08 11:21:04;;;;;;;19.15;2.53;;;4.30;99.90;;;;;;5094017;28;20107;-63
2024/02/08 11:23:32;;;;;;;9.38;2.20;;;4.30;99.90;;;;;;5092823;28;20478;-63
2024/02/08 11:26:08;;;;;;;9.15;1.63;;;4.20;99.90;;;;;;5076495;28;20105;-63
2024/02/08 11:28:47;;;;;;;7.82;1.75;;;4.30;99.90;;;;;;5088598;28;20036;-63
2024/02/08 11:31:17;;;;;;;12.55;2.10;;;4.30;99.90;;;;;;5072991;28;20083;-63
2024/02/08 11:33:44;;;;;;;12.25;2.13;;;4.30;99.90;;;;;;5074690;28;20166;-63
2024/02/08 11:36:12;;;;;;;12.68;2.10;;;4.30;99.90;;;;;;5093468;28;20043;-63
2024/02/08 11:38:46;;;;;;;8.63;2.53;;;4.40;99.90;;;;;;5076308;28;20027;-63
2024/02/08 11:41:14;;;;;;;9.48;1.80;;;4.30;99.90;;;;;;5094362;28;20085;-63
2024/02/08 11:43:51;;;;;;;13.02;2.95;;;4.40;99.90;;;;;;5106435;28;20032;-63
2024/02/08 11:46:22;;;;;;;18.00;1.88;;;4.40;99.90;;;;;;5097131;28;20055;-63
2024/02/08 11:48:50;;;;;;;8.95;1.75;;;4.40;99.90;;;;;;5093321;28;20547;-63
2024/02/08 11:51:17;;;;;;;10.70;1.50;;;4.40;99.90;;;;;;5093034;28;20040;-63
2024/02/08 11:53:46;;;;;;;9.07;2.75;;;4.40;99.90;;;;;;5091941;28;20159;-63
2024/02/08 11:56:15;;;;;;;13.40;2.10;;;4.40;99.90;;;;;;5076458;28;20131;-63
2024/02/08 11:58:42;;;;;;;11.10;2.55;;;4.30;99.90;;;;;;5094849;28;20040;-63
2024/02/08 12:01:18;;;;;;;8.32;1.92;;;4.40;99.90;;;;;;5075479;28;20048;-63
2024/02/08 12:03:50;;;;;;;16.65;2.08;;;4.40;99.90;;;;;;5095904;28;20050;-63
2024/02/08 12:06:22;;;;;;;13.00;2.10;;;4.40;99.90;;;;;;5100582;28;20043;-63
2024/02/08 12:09:07;;;;;;;10.45;2.88;;;4.40;99.90;;;;;;5094140;28;20094;-63
2024/02/08 12:11:33;;;;;;;12.30;2.17;;;4.40;99.90;;;;;;5085578;28;20086;-63
2024/02/08 12:14:02;;;;;;;16.42;3.05;;;4.30;99.90;;;;;;5099415;28;20109;-63
2024/02/08 12:16:29;;;;;;;11.63;1.92;;;4.40;99.90;;;;;;5093331;28;20061;-63
2024/02/08 12:19:06;;;;;;;13.27;2.92;;;4.30;99.90;;;;;;5095722;28;20048;-63
2024/02/08 12:21:34;;;;;;;11.68;2.22;;;4.30;99.90;;;;;;5098058;28;20036;-63
2024/02/08 12:24:00;;;;;;;10.32;2.70;;;4.40;99.90;;;;;;5097187;28;20119;-63
2024/02/08 12:26:31;;;;;;;6.80;1.63;;;4.30;99.90;;;;;;5094527;28;20122;-63
2024/02/08 12:29:01;;;;;;;16.35;3.10;;;4.30;99.90;;;;;;5096787;28;20150;-63
2024/02/08 12:31:29;;;;;;;9.63;2.20;;;4.30;99.90;;;;;;5096696;28;20122;-63
2024/02/08 12:33:58;;;;;;;9.88;2.40;;;4.30;99.90;;;;;;5080923;28;20032;-63
2024/02/08 12:36:28;;;;;;;9.60;1.83;;;4.30;99.90;;;;;;5077535;28;20028;-63
2024/02/08 12:38:58;;;;;;;13.63;1.92;;;4.30;99.90;;;;;;5097554;28;20044;-63
2024/02/08 12:41:24;;;;;;;8.90;2.45;;;4.20;99.90;;;;;;5083605;28;20043;-63
2024/02/08 12:43:53;;;;;;;13.25;2.15;;;4.30;99.90;;;;;;5083562;28;20397;-64
2024/02/08 12:46:22;;;;;;;10.52;3.10;;;4.30;99.90;;;;;;5085711;28;20040;-63
2024/02/08 12:48:48;;;;;;;9.18;2.20;;;4.30;99.90;;;;;;5099942;28;20054;-63
2024/02/08 12:51:20;;;;;;;12.30;2.13;;;4.30;99.90;;;;;;5101548;28;20393;-63
2024/02/08 12:54:07;;;;;;;10.75;2.55;;;4.30;99.90;;;;;;5096418;28;20130;-63
2024/02/08 12:56:36;;;;;;;11.00;2.97;;;4.30;99.90;;;;;;5078230;28;20051;-63
2024/02/08 12:59:04;;;;;;;10.55;2.05;;;4.30;99.90;;;;;;5108175;27;20039;-63
2024/02/08 13:01:41;;;;;;;8.18;1.83;;;4.30;99.90;;;;;;5074189;28;20050;-63
2024/02/08 13:04:07;;;;;;;9.80;2.25;;;4.30;99.90;;;;;;5093291;28;20058;-63
2024/02/08 13:06:33;;;;;;;9.82;2.20;;;4.30;99.90;;;;;;5096530;28;20449;-63
2024/02/08 13:09:25;;;;;;;7.68;1.55;;;4.30;99.90;;;;;;5090336;28;20044;-63
2024/02/08 13:11:49;;;;;;;8.48;2.53;;;4.30;99.90;;;;;;5096951;28;20036;-63
2024/02/08 13:14:18;;;;;;;6.07;1.65;;;4.30;99.90;;;;;;5094878;28;20741;-63
2024/02/08 13:16:44;;;;;;;8.15;1.95;;;4.30;99.90;;;;;;5096034;28;20032;-63
2024/02/08 13:19:13;;;;;;;5.20;0.50;;;4.20;99.90;;;;;;5098129;28;20039;-63
2024/02/08 13:21:43;;;;;;;1.58;0.43;;;4.00;99.90;;;;;;5097708;28;20085;-63
2024/02/08 13:24:09;;;;;;;2.72;0.38;;;3.90;99.90;;;;;;5077500;28;20090;-63
2024/02/08 13:26:36;;;;;;;2.88;0.80;;;3.80;99.90;;;;;;5096692;28;20081;-63
2024/02/08 13:29:02;;;;;;;3.00;0.35;;;3.70;99.90;;;;;;5078079;28;20051;-63
2024/02/08 13:31:28;;;;;;;3.72;0.50;;;3.50;99.90;;;;;;5072639;28;20036;-63
2024/02/08 13:33:55;;;;;;;2.08;0.35;;;3.30;99.90;;;;;;5095057;28;20062;-63
2024/02/08 13:36:25;;;;;;;2.38;0.60;;;3.10;99.90;;;;;;5098392;28;20446;-63
2024/02/08 13:38:51;;;;;;;2.88;0.50;;;3.10;99.90;;;;;;5091454;28;20631;-63
2024/02/08 13:41:17;;;;;;;5.90;0.63;;;2.90;99.90;;;;;;5068836;28;20042;-64
2024/02/08 13:43:46;;;;;;;5.07;0.70;;;2.80;99.90;;;;;;5093564;28;20052;-63
2024/02/08 13:46:13;;;;;;;5.68;1.27;;;2.70;99.90;;;;;;5076999;28;20044;-63
2024/02/08 13:48:39;;;;;;;2.25;0.57;;;2.50;99.90;;;;;;5065930;28;20040;-64
2024/02/08 13:51:07;;;;;;;3.53;0.80;;;2.40;99.90;;;;;;5092740;28;20059;-63
2024/02/08 13:53:37;;;;;;;8.23;0.98;;;2.30;99.90;;;;;;5075244;28;20043;-63
2024/02/08 13:56:07;;;;;;;3.47;0.63;;;2.10;99.90;;;;;;5055061;28;20044;-63
2024/02/08 13:58:36;;;;;;;6.00;0.82;;;2.10;99.90;;;;;;5093442;28;20072;-64
2024/02/08 14:01:03;;;;;;;6.20;1.08;;;2.00;99.90;;;;;;5087865;28;20044;-64
2024/02/08 14:03:29;;;;;;;5.82;0.40;;;1.90;99.90;;;;;;5108580;27;20424;-64
2024/02/08 14:05:55;;;;;;;2.17;0.60;;;1.80;99.90;;;;;;5094065;28;20039;-64
2024/02/08 14:08:23;;;;;;;3.03;0.50;;;1.70;99.90;;;;;;5089674;28;20043;-64
2024/02/08 14:10:49;;;;;;;4.18;0.47;;;1.70;99.90;;;;;;5093215;28;20093;-64
2024/02/08 14:13:16;;;;;;;1.50;0.40;;;1.70;99.90;;;;;;5093396;28;20568;-64
2024/02/08 14:15:48;;;;;;;2.35;0.50;;;1.60;99.90;;;;;;5070791;28;20040;-64
2024/02/08 14:18:30;;;;;;;1.80;0.50;;;1.60;99.90;;;;;;5092032;28;20028;-64
2024/02/08 14:20:58;;;;;;;4.38;0.40;;;1.60;99.90;;;;;;5089368;28;20127;-64
2024/02/08 14:23:30;;;;;;;2.97;0.52;;;1.60;99.90;;;;;;5071964;28;20054;-64
2024/02/08 14:26:09;;;;;;;7.68;0.68;;;1.50;99.90;;;;;;5106675;27;20055;-64
2024/02/08 14:28:42;;;;;;;4.55;0.77;;;1.50;99.90;;;;;;5091332;28;20044;-64
2024/02/08 14:31:17;;;;;;;3.42;0.70;;;1.50;99.90;;;;;;5069270;28;20048;-64
2024/02/08 14:33:46;;;;;;;4.78;1.00;;;1.50;99.90;;;;;;5071294;28;20047;-64
2024/02/08 14:36:13;;;;;;;3.92;0.80;;;1.50;99.90;;;;;;5075526;28;20394;-64
2024/02/08 14:38:40;;;;;;;2.83;1.02;;;1.40;99.90;;;;;;5092688;28;20078;-64
2024/02/08 14:41:06;;;;;;;2.90;0.63;;;1.50;99.90;;;;;;5073921;28;20039;-64
2024/02/08 14:43:33;;;;;;;4.00;0.52;;;1.40;99.90;;;;;;5091343;28;20040;-63
2024/02/08 14:46:02;;;;;;;4.18;1.10;;;1.40;99.90;;;;;;5073720;28;20074;-64
2024/02/08 14:48:37;;;;;;;7.18;1.20;;;1.50;99.90;;;;;;5089619;28;20070;-64
2024/02/08 14:53:58;;;;;;;6.13;0.88;;;1.40;99.90;;;;;;5086555;28;20033;-64
2024/02/08 14:56:24;;;;;;;5.78;0.68;;;1.40;99.90;;;;;;5091372;28;20091;-64
2024/02/08 14:58:56;;;;;;;5.45;0.88;;;1.40;99.90;;;;;;5086149;28;20742;-64
2024/02/08 15:01:38;;;;;;;3.20;1.10;;;1.30;99.90;;;;;;5088605;28;20031;-64
2024/02/08 15:04:15;;;;;;;4.00;0.65;;;1.40;99.90;;;;;;5090437;28;20036;-64
2024/02/08 15:12:10;;;;;;;8.98;1.10;;;1.30;99.90;;;;;;5090729;28;20317;-64
2024/02/08 15:14:37;;;;;;;4.13;0.80;;;1.30;99.90;;;;;;5090597;28;20086;-64
2024/02/08 15:17:18;;;;;;;3.40;0.65;;;1.30;99.90;;;;;;5103764;27;20088;-64
2024/02/08 15:19:48;;;;;;;4.47;0.82;;;1.30;99.90;;;;;;5068532;28;20096;-64